createdAt,value
2019-05-03T00:00:59.913Z,5.37
2019-05-03T00:03:29.438Z,5.45
2019-05-03T00:06:03.348Z,5.50
2019-05-03T00:08:33.374Z,6.00
2019-05-03T00:11:03.111Z,5.62
2019-05-03T00:13:32.628Z,5.60
2019-05-03T00:16:03.757Z,5.10
2019-05-03T00:18:33.214Z,6.47
2019-05-03T00:21:02.673Z,6.15
2019-05-03T00:23:32.473Z,6.05
2019-05-03T00:26:02.630Z,6.35
2019-05-03T00:28:33.621Z,6.28
2019-05-03T00:31:04.614Z,5.60
2019-05-03T00:33:35.319Z,5.87
2019-05-03T00:36:06.565Z,5.80
2019-05-03T00:38:36.173Z,5.53
2019-05-03T00:41:05.688Z,5.25
2019-05-03T00:43:35.145Z,5.12
2019-05-03T00:46:04.674Z,5.22
2019-05-03T00:48:35.180Z,5.15
2019-05-03T00:51:04.633Z,5.55
2019-05-03T00:53:34.091Z,5.30
2019-05-03T00:56:03.636Z,5.37
2019-05-03T00:58:34.731Z,5.42
2019-05-03T01:01:04.330Z,5.47
2019-05-03T01:03:33.788Z,5.80
2019-05-03T01:06:03.256Z,5.90
2019-05-03T01:08:32.806Z,5.28
2019-05-03T01:11:02.273Z,6.05
2019-05-03T01:13:32.092Z,5.72
2019-05-03T01:16:22.907Z,6.35
2019-05-03T01:18:52.527Z,5.78
2019-05-03T01:21:22.537Z,5.90
2019-05-03T01:23:52.797Z,6.30
2019-05-03T01:26:22.808Z,6.47
2019-05-03T01:28:52.472Z,6.45
2019-05-03T01:31:22.794Z,7.15
2019-05-03T01:33:52.630Z,6.40
2019-05-03T01:36:22.766Z,6.10
2019-05-03T01:38:53.086Z,6.15
2019-05-03T01:41:22.667Z,7.17
2019-05-03T01:43:52.613Z,7.10
2019-05-03T01:46:22.835Z,6.62
2019-05-03T01:49:01.569Z,6.87
2019-05-03T01:51:38.506Z,7.10
2019-05-03T01:54:08.037Z,6.67
2019-05-03T01:56:37.513Z,6.85
2019-05-03T01:59:06.985Z,6.62
2019-05-03T02:01:38.080Z,6.83
2019-05-03T02:04:09.173Z,7.45
2019-05-03T02:06:38.706Z,6.80
2019-05-03T02:09:09.514Z,6.55
2019-05-03T02:11:38.969Z,7.45
2019-05-03T02:14:08.441Z,7.33
2019-05-03T02:16:38.285Z,7.45
2019-05-03T02:19:07.810Z,8.18
2019-05-03T02:21:37.277Z,7.58
2019-05-03T02:24:06.825Z,6.78
2019-05-03T02:26:36.273Z,7.65
2019-05-03T02:29:05.761Z,7.50
2019-05-03T02:31:35.693Z,8.65
2019-05-03T02:34:05.159Z,7.87
2019-05-03T02:36:34.610Z,8.33
2019-05-03T02:39:07.957Z,8.58
2019-05-03T02:41:37.423Z,8.03
2019-05-03T02:44:07.818Z,7.37
2019-05-03T02:46:56.256Z,7.80
2019-05-03T02:49:35.231Z,8.33
2019-05-03T02:52:06.695Z,8.88
2019-05-03T02:54:36.422Z,8.40
2019-05-03T02:57:06.404Z,8.63
2019-05-03T02:59:35.958Z,8.63
2019-05-03T03:02:06.362Z,8.08
2019-05-03T03:04:36.264Z,8.95
2019-05-03T03:07:06.775Z,8.88
2019-05-03T03:09:36.376Z,8.48
2019-05-03T03:12:07.698Z,8.75
2019-05-03T03:14:37.695Z,8.95
2019-05-03T03:17:09.761Z,8.10
2019-05-03T03:19:41.751Z,8.80
2019-05-03T03:22:12.817Z,7.62
2019-05-03T03:24:45.934Z,8.35
2019-05-03T03:27:18.780Z,7.55
2019-05-03T03:29:51.331Z,8.55
2019-05-03T03:32:28.420Z,8.88
2019-05-03T03:35:04.367Z,8.18
2019-05-03T03:37:35.235Z,8.20
2019-05-03T03:40:06.144Z,8.00
2019-05-03T03:42:37.489Z,8.03
2019-05-03T03:45:07.483Z,7.72
2019-05-03T03:47:39.293Z,8.13
2019-05-03T03:50:09.202Z,8.75
2019-05-03T03:52:40.300Z,8.30
2019-05-03T03:55:10.293Z,9.05
2019-05-03T03:57:40.188Z,8.15
2019-05-03T04:00:12.298Z,8.60
2019-05-03T04:02:41.749Z,8.38
2019-05-03T04:05:11.370Z,8.85
2019-05-03T04:07:40.839Z,8.68
2019-05-03T04:10:11.134Z,8.78
2019-05-03T04:12:45.278Z,8.53
2019-05-03T04:15:17.921Z,8.90
2019-05-03T04:17:56.595Z,9.15
2019-05-03T04:20:28.032Z,9.45
2019-05-03T04:26:21.134Z,10.18
2019-05-03T04:28:50.562Z,9.98
2019-05-03T04:31:20.033Z,9.70
2019-05-03T04:33:49.499Z,10.20
2019-05-03T04:39:45.368Z,10.30
2019-05-03T04:42:16.386Z,9.70
2019-05-03T04:44:45.563Z,8.95
2019-05-03T04:49:58.615Z,10.00
2019-05-03T04:52:28.102Z,10.08
2019-05-03T04:54:59.206Z,10.03
2019-05-03T04:57:39.874Z,10.53
2019-05-03T04:59:59.747Z,10.13
2019-05-03T05:02:29.214Z,9.70
2019-05-03T05:04:58.659Z,9.88
2019-05-03T05:07:28.083Z,9.88
2019-05-03T05:09:57.446Z,9.03
2019-05-03T05:12:26.879Z,9.70
2019-05-03T05:14:56.692Z,9.93
2019-05-03T05:17:45.945Z,9.98
2019-05-03T05:20:17.346Z,9.43
2019-05-03T05:22:46.794Z,8.78
2019-05-03T05:25:17.916Z,8.43
2019-05-03T05:28:05.285Z,8.28
2019-05-03T05:30:35.337Z,7.60
2019-05-03T05:33:06.661Z,7.55
2019-05-03T05:35:36.007Z,8.65
2019-05-03T05:38:05.467Z,7.72
2019-05-03T05:40:35.039Z,8.33
2019-05-03T05:43:05.071Z,7.85
2019-05-03T05:45:34.953Z,8.13
2019-05-03T05:48:06.091Z,7.12
2019-05-03T05:50:55.286Z,8.28
2019-05-03T05:53:25.362Z,7.75
2019-05-03T05:56:15.789Z,7.15
2019-05-03T05:58:59.288Z,7.22
2019-05-03T06:01:35.195Z,7.58
2019-05-03T06:04:05.363Z,7.95
2019-05-03T06:06:42.511Z,7.25
2019-05-03T06:09:16.703Z,8.40
2019-05-03T06:11:47.697Z,7.42
2019-05-03T06:14:30.772Z,6.55
2019-05-03T06:17:05.487Z,6.80
2019-05-03T06:19:39.476Z,6.33
2019-05-03T06:22:19.340Z,6.45
2019-05-03T06:24:59.445Z,6.75
2019-05-03T06:27:38.935Z,6.90
2019-05-03T06:30:11.746Z,6.15
2019-05-03T06:32:44.719Z,6.62
2019-05-03T06:35:15.227Z,6.67
2019-05-03T06:37:46.076Z,6.62
2019-05-03T06:40:16.811Z,6.40
2019-05-03T06:42:54.535Z,6.60
2019-05-03T06:45:17.367Z,6.47
2019-05-03T06:47:49.907Z,6.15
2019-05-03T06:50:19.519Z,5.92
2019-05-03T06:52:48.891Z,6.58
2019-05-03T06:55:18.260Z,5.37
2019-05-03T07:01:22.447Z,6.15
2019-05-03T07:04:46.591Z,4.92
2019-05-03T07:10:04.933Z,5.12
2019-05-03T07:12:51.883Z,5.05
2019-05-03T07:15:21.299Z,5.15
2019-05-03T07:17:50.677Z,5.30
2019-05-03T07:20:20.031Z,4.97
2019-05-03T07:22:49.398Z,4.92
2019-05-03T07:31:25.515Z,5.47
2019-05-03T07:33:55.227Z,5.22
2019-05-03T07:36:28.083Z,4.50
2019-05-03T07:38:55.771Z,4.25
2019-05-03T07:41:27.162Z,4.35
2019-05-03T07:43:56.253Z,4.47
2019-05-03T07:46:25.679Z,4.25
2019-05-03T07:48:56.213Z,4.47
2019-05-03T07:51:25.583Z,4.95
2019-05-03T07:53:55.582Z,4.92
2019-05-03T07:56:29.355Z,4.00
2019-05-03T07:59:03.139Z,4.50
2019-05-03T08:01:32.476Z,3.60
2019-05-03T08:04:01.984Z,3.55
2019-05-03T08:06:31.377Z,3.50
2019-05-03T08:09:00.795Z,3.70
2019-05-03T08:11:31.773Z,3.52
2019-05-03T08:14:01.123Z,3.20
2019-05-03T08:16:30.575Z,3.83
2019-05-03T08:18:59.929Z,3.08
2019-05-03T08:21:29.283Z,3.83
2019-05-03T08:23:58.661Z,3.22
2019-05-03T08:26:28.115Z,2.90
2019-05-03T08:28:57.520Z,3.33
2019-05-03T08:31:35.387Z,3.22
2019-05-03T08:34:09.855Z,2.90
2019-05-03T08:36:55.951Z,2.85
2019-05-03T08:39:25.960Z,3.37
2019-05-03T08:41:57.049Z,3.40
2019-05-03T08:44:27.485Z,2.98
2019-05-03T08:46:57.865Z,2.55
2019-05-03T08:49:27.553Z,2.95
2019-05-03T08:51:57.044Z,2.85
2019-05-03T08:56:55.706Z,2.70
2019-05-03T08:59:29.895Z,2.85
2019-05-03T09:01:56.539Z,2.37
2019-05-03T09:04:36.004Z,2.60
2019-05-03T09:06:56.967Z,2.55
2019-05-03T09:09:34.853Z,3.35
2019-05-03T09:12:04.784Z,2.55
2019-05-03T09:14:42.575Z,2.77
2019-05-03T09:17:05.555Z,2.58
2019-05-03T09:19:34.913Z,2.77
2019-05-03T09:22:06.111Z,2.22
2019-05-03T09:24:35.689Z,2.37
2019-05-03T09:27:05.488Z,3.00
2019-05-03T09:29:43.310Z,2.80
2019-05-03T09:32:06.538Z,3.60
2019-05-03T09:34:35.985Z,2.42
2019-05-03T09:37:05.405Z,3.05
2019-05-03T09:39:35.460Z,2.85
2019-05-03T09:42:05.192Z,3.08
2019-05-03T09:44:35.135Z,3.02
2019-05-03T09:47:05.553Z,3.67
2019-05-03T09:49:35.471Z,3.17
2019-05-03T09:52:08.116Z,3.47
2019-05-03T09:54:37.659Z,3.60
2019-05-03T09:57:08.151Z,3.25
2019-05-03T09:59:37.568Z,3.92
2019-05-03T10:02:07.172Z,3.45
2019-05-03T10:04:36.880Z,3.50
2019-05-03T10:07:06.563Z,3.67
2019-05-03T10:09:36.008Z,3.75
2019-05-03T10:12:07.179Z,4.50
2019-05-03T10:14:36.537Z,4.33
2019-05-03T10:17:25.205Z,3.60
2019-05-03T10:19:54.794Z,3.70
2019-05-03T10:22:28.014Z,3.62
2019-05-03T10:24:58.025Z,3.42
2019-05-03T10:30:39.752Z,3.62
2019-05-03T10:33:15.533Z,3.62
2019-05-03T10:35:45.118Z,3.35
2019-05-03T10:41:38.953Z,3.17
2019-05-03T10:44:08.433Z,3.40
2019-05-03T10:46:37.953Z,3.75
2019-05-03T10:49:07.367Z,4.00
2019-05-03T10:51:38.397Z,2.80
2019-05-03T10:54:07.862Z,3.20
2019-05-03T10:56:38.913Z,3.08
2019-05-03T10:59:12.267Z,3.52
2019-05-03T11:01:58.806Z,3.60
2019-05-03T11:04:29.231Z,7.62
2019-05-03T11:06:58.685Z,10.40
2019-05-03T11:09:28.124Z,11.05
2019-05-03T11:11:59.216Z,9.83
2019-05-03T11:14:28.842Z,8.33
2019-05-03T11:17:00.548Z,7.85
2019-05-03T11:19:29.362Z,7.83
2019-05-03T11:21:58.783Z,9.30
2019-05-03T11:24:28.257Z,8.45
2019-05-03T11:27:00.483Z,8.08
2019-05-03T11:29:30.012Z,6.58
2019-05-03T11:32:09.375Z,8.23
2019-05-03T11:34:56.199Z,7.30
2019-05-03T11:37:36.015Z,6.70
2019-05-03T11:40:07.331Z,6.55
2019-05-03T11:42:36.700Z,6.58
2019-05-03T11:45:09.997Z,6.25
2019-05-03T11:47:39.364Z,7.25
2019-05-03T11:50:08.961Z,6.20
2019-05-03T11:52:38.328Z,6.47
2019-05-03T11:55:11.239Z,7.20
2019-05-03T11:57:38.789Z,7.45
2019-05-03T12:00:10.527Z,7.50
2019-05-03T12:02:41.615Z,6.35
2019-05-03T12:05:12.759Z,6.80
2019-05-03T12:07:42.212Z,6.50
2019-05-03T12:10:26.497Z,6.22
2019-05-03T12:12:47.175Z,4.62
2019-05-03T12:15:16.608Z,4.97
2019-05-03T12:17:53.985Z,4.58
2019-05-03T12:20:20.001Z,5.20
2019-05-03T12:22:50.528Z,5.85
2019-05-03T12:25:21.890Z,5.53
2019-05-03T12:27:51.606Z,5.55
2019-05-03T12:30:21.238Z,5.50
2019-05-03T12:32:50.748Z,5.65
2019-05-03T12:35:20.124Z,5.55
2019-05-03T12:37:49.487Z,5.00
2019-05-03T12:40:18.924Z,4.75
2019-05-03T12:42:49.360Z,4.95
2019-05-03T12:45:19.874Z,5.80
2019-05-03T12:47:49.313Z,4.85
2019-05-03T12:50:18.920Z,3.87
2019-05-03T12:52:50.514Z,3.33
2019-05-03T12:55:19.345Z,3.62
2019-05-03T12:57:48.855Z,4.30
2019-05-03T13:00:36.692Z,5.33
2019-05-03T13:03:08.835Z,4.40
2019-05-03T13:05:38.275Z,6.10
2019-05-03T13:08:35.030Z,5.47
2019-05-03T13:11:05.265Z,4.90
2019-05-03T13:13:36.093Z,4.90
2019-05-03T13:16:06.322Z,5.37
2019-05-03T13:18:35.692Z,4.78
2019-05-03T13:21:06.099Z,3.90
2019-05-03T13:23:36.005Z,3.80
2019-05-03T13:26:06.033Z,4.30
2019-05-03T13:28:35.710Z,3.85
2019-05-03T13:31:06.367Z,3.77
2019-05-03T13:33:35.745Z,4.08
2019-05-03T13:36:05.574Z,3.60
2019-05-03T13:38:35.322Z,3.92
2019-05-03T13:41:06.855Z,3.90
2019-05-03T13:43:36.904Z,3.70
2019-05-03T13:46:06.396Z,4.28
2019-05-03T13:48:44.866Z,4.50
2019-05-03T13:51:06.906Z,4.33
2019-05-03T13:53:36.427Z,3.83
2019-05-03T13:56:05.912Z,3.87
2019-05-03T13:58:36.015Z,4.37
2019-05-03T14:01:05.918Z,3.75
2019-05-03T14:03:35.747Z,3.77
2019-05-03T14:06:08.418Z,4.08
2019-05-03T14:12:24.415Z,4.25
2019-05-03T14:14:56.270Z,3.40
2019-05-03T14:17:27.655Z,4.00
2019-05-03T14:20:05.457Z,3.80
2019-05-03T14:22:36.767Z,5.00
2019-05-03T14:25:07.068Z,4.12
2019-05-03T14:27:36.452Z,4.10
2019-05-03T14:30:09.310Z,3.52
2019-05-03T14:32:38.756Z,4.10
2019-05-03T14:35:08.239Z,4.70
2019-05-03T14:37:37.902Z,4.35
2019-05-03T14:40:08.632Z,4.25
2019-05-03T14:42:39.235Z,3.92
2019-05-03T14:45:10.632Z,4.95
2019-05-03T14:47:40.159Z,3.75
2019-05-03T14:53:45.334Z,4.33
2019-05-03T14:56:34.855Z,4.67
2019-05-03T14:59:06.009Z,4.25
2019-05-03T15:01:39.680Z,5.62
2019-05-03T15:04:10.164Z,4.70
2019-05-03T15:06:39.591Z,4.30
2019-05-03T15:09:09.052Z,4.55
2019-05-03T15:11:38.551Z,4.10
2019-05-03T15:14:07.923Z,4.83
2019-05-03T15:16:37.437Z,5.83
2019-05-03T15:19:06.880Z,5.25
2019-05-03T15:21:36.345Z,5.17
2019-05-03T15:24:05.770Z,4.87
2019-05-03T15:26:35.723Z,4.80
2019-05-03T15:29:06.433Z,5.03
2019-05-03T15:31:35.936Z,4.00
2019-05-03T15:34:05.333Z,4.70
2019-05-03T15:36:34.764Z,4.45
2019-05-03T15:39:06.163Z,4.78
2019-05-03T15:41:37.205Z,4.92
2019-05-03T15:44:08.372Z,4.40
2019-05-03T15:46:51.341Z,5.12
2019-05-03T15:49:24.671Z,4.53
2019-05-03T15:51:54.022Z,5.10
2019-05-03T15:54:24.638Z,4.45
2019-05-03T15:56:54.407Z,4.37
2019-05-03T15:59:24.392Z,4.42
2019-05-03T16:01:55.344Z,4.72
2019-05-03T16:04:25.147Z,5.03
2019-05-03T16:06:55.459Z,4.85
2019-05-03T16:09:26.125Z,4.70
2019-05-03T16:11:55.665Z,4.92
2019-05-03T16:14:25.011Z,5.28
2019-05-03T16:16:54.816Z,4.42
2019-05-03T16:19:24.487Z,4.90
2019-05-03T16:21:54.519Z,4.15
2019-05-03T16:24:24.895Z,5.00
2019-05-03T16:30:19.871Z,4.58
2019-05-03T16:32:49.438Z,4.83
2019-05-03T16:35:18.935Z,4.62
2019-05-03T16:37:50.154Z,4.95
2019-05-03T16:40:19.687Z,5.33
2019-05-03T16:42:49.123Z,5.20
2019-05-03T16:45:18.504Z,5.00
2019-05-03T16:47:47.885Z,4.40
2019-05-03T16:50:17.923Z,4.85
2019-05-03T16:52:47.443Z,5.05
2019-05-03T16:55:16.893Z,5.40
2019-05-03T16:57:46.431Z,5.45
2019-05-03T17:03:54.943Z,4.92
2019-05-03T17:06:32.275Z,4.90
2019-05-03T17:09:06.015Z,4.60
2019-05-03T17:11:36.987Z,5.35
2019-05-03T17:14:06.517Z,4.97
2019-05-03T17:16:35.952Z,4.83
2019-05-03T17:19:05.859Z,4.78
2019-05-03T17:21:35.551Z,4.80
2019-05-03T17:24:06.418Z,5.37
2019-05-03T17:26:35.815Z,5.03
2019-05-03T17:29:05.388Z,5.25
2019-05-03T17:31:35.297Z,5.87
2019-05-03T17:34:05.580Z,5.25
2019-05-03T17:36:36.408Z,6.45
2019-05-03T17:39:08.136Z,5.33
2019-05-03T17:41:45.195Z,5.67
2019-05-03T17:44:21.919Z,5.10
2019-05-03T17:46:51.299Z,5.33
2019-05-03T17:49:20.772Z,6.03
2019-05-03T17:52:00.863Z,6.45
2019-05-03T17:54:33.413Z,5.80
2019-05-03T17:57:04.679Z,5.60
2019-05-03T17:59:35.723Z,4.97
2019-05-03T18:02:22.239Z,6.30
2019-05-03T18:04:55.009Z,5.45
2019-05-03T18:07:34.922Z,5.75
2019-05-03T18:10:07.068Z,5.53
2019-05-03T18:12:36.487Z,5.67
2019-05-03T18:15:09.263Z,5.10
2019-05-03T18:17:38.680Z,5.78
2019-05-03T18:23:20.583Z,4.95
2019-05-03T18:25:49.952Z,4.85
2019-05-03T18:28:19.307Z,5.28
2019-05-03T18:30:48.686Z,4.95
2019-05-03T18:37:05.660Z,5.28
2019-05-03T18:39:35.160Z,5.25
2019-05-03T18:42:06.456Z,5.30
2019-05-03T18:44:39.973Z,5.58
2019-05-03T18:47:11.052Z,5.83
2019-05-03T18:49:40.444Z,5.15
2019-05-03T18:52:09.886Z,5.37
2019-05-03T18:54:39.323Z,5.67
2019-05-03T18:57:09.263Z,6.53
2019-05-03T18:59:38.651Z,7.12
2019-05-03T19:05:21.427Z,7.75
2019-05-03T19:11:35.171Z,6.33
2019-05-03T19:14:06.535Z,7.03
2019-05-03T19:16:54.510Z,6.87
2019-05-03T19:19:25.763Z,7.20
2019-05-03T19:21:56.063Z,6.15
2019-05-03T19:24:25.675Z,5.40
2019-05-03T19:26:55.128Z,6.35
2019-05-03T19:29:25.083Z,6.35
2019-05-03T19:31:55.289Z,6.37
2019-05-03T19:34:26.909Z,6.67
2019-05-03T19:36:55.912Z,7.33
2019-05-03T19:39:25.367Z,5.78
2019-05-03T19:41:55.257Z,6.22
2019-05-03T19:44:26.124Z,7.53
2019-05-03T19:46:55.535Z,6.58
2019-05-03T19:49:26.516Z,6.55
2019-05-03T19:51:55.968Z,7.25
2019-05-03T19:54:25.322Z,12.33
2019-05-03T19:56:55.631Z,7.95
2019-05-03T19:59:43.872Z,11.97
2019-05-03T20:02:20.562Z,7.90
2019-05-03T20:05:09.640Z,7.28
2019-05-03T20:07:41.544Z,9.83
2019-05-03T20:10:11.519Z,9.03
2019-05-03T20:12:40.875Z,7.80
2019-05-03T20:15:10.383Z,8.20
2019-05-03T20:17:39.827Z,6.92
2019-05-03T20:20:09.315Z,7.65
2019-05-03T20:22:38.799Z,6.00
2019-05-03T20:25:08.401Z,6.15
2019-05-03T20:27:37.773Z,5.85
2019-05-03T20:30:07.740Z,6.78
2019-05-03T20:32:37.163Z,5.87
2019-05-03T20:35:16.632Z,5.72
2019-05-03T20:37:38.925Z,6.00
2019-05-03T20:40:08.811Z,5.95
2019-05-03T20:42:52.019Z,6.03
2019-05-03T20:45:24.874Z,5.67
2019-05-03T20:47:56.299Z,6.35
2019-05-03T20:50:25.651Z,5.85
2019-05-03T20:52:55.139Z,5.75
2019-05-03T20:55:25.689Z,6.75
2019-05-03T20:57:55.356Z,5.55
2019-05-03T21:00:26.539Z,4.47
2019-05-03T21:02:57.394Z,4.72
2019-05-03T21:05:31.767Z,4.85
2019-05-03T21:07:58.188Z,5.25
2019-05-03T21:10:27.571Z,3.65
2019-05-03T21:12:57.006Z,3.42
2019-05-03T21:15:28.090Z,4.62
2019-05-03T21:24:18.691Z,4.10
2019-05-03T21:26:48.049Z,4.22
2019-05-03T21:29:17.403Z,4.05
2019-05-03T21:31:46.827Z,4.05
2019-05-03T21:34:16.272Z,3.95
2019-05-03T21:36:45.651Z,4.55
2019-05-03T21:39:14.999Z,4.45
2019-05-03T21:41:45.074Z,4.45
2019-05-03T21:44:31.288Z,3.87
2019-05-03T21:47:02.436Z,4.08
2019-05-03T21:49:45.517Z,4.62
2019-05-03T21:52:14.943Z,4.62
2019-05-03T21:54:45.083Z,4.40
2019-05-03T21:57:16.617Z,4.53
2019-05-03T21:59:45.855Z,4.53
2019-05-03T22:02:15.482Z,4.60
2019-05-03T22:04:44.921Z,5.37
2019-05-03T22:07:14.308Z,4.97
2019-05-03T22:09:45.288Z,5.00
2019-05-03T22:12:14.798Z,5.17
2019-05-03T22:14:58.086Z,5.83
2019-05-03T22:17:45.705Z,5.45
2019-05-03T22:20:19.761Z,5.53
2019-05-03T22:22:50.821Z,4.53
2019-05-03T22:28:32.439Z,2.90
2019-05-03T22:31:04.355Z,3.70
2019-05-03T22:33:32.940Z,2.62
2019-05-03T22:36:08.680Z,2.70
2019-05-03T22:38:36.360Z,2.90
2019-05-03T22:41:05.518Z,2.55
2019-05-03T22:43:35.137Z,2.85
2019-05-03T22:46:05.310Z,3.00
2019-05-03T22:48:35.936Z,2.85
2019-05-03T22:51:05.312Z,2.72
2019-05-03T22:53:34.755Z,3.33
2019-05-03T22:56:04.928Z,2.80
2019-05-03T22:58:35.493Z,2.92
2019-05-03T23:01:05.053Z,3.08
2019-05-03T23:03:36.070Z,2.70
2019-05-03T23:06:05.411Z,2.52
2019-05-03T23:08:34.763Z,2.80
2019-05-03T23:11:05.249Z,2.65
2019-05-03T23:13:34.812Z,2.37
2019-05-03T23:16:05.175Z,2.72
2019-05-03T23:18:35.123Z,2.00
2019-05-03T23:21:09.303Z,1.60
2019-05-03T23:23:48.436Z,1.50
2019-05-03T23:26:17.864Z,1.75
2019-05-03T23:28:47.277Z,1.60
2019-05-03T23:31:16.699Z,1.70
2019-05-03T23:33:46.109Z,1.50
2019-05-03T23:36:16.605Z,1.67
2019-05-03T23:38:45.975Z,1.50
2019-05-03T23:41:15.469Z,1.87
2019-05-03T23:43:45.142Z,1.52
2019-05-03T23:46:16.443Z,1.65
2019-05-03T23:48:45.811Z,1.45
2019-05-03T23:51:34.937Z,1.70
2019-05-03T23:54:05.561Z,1.75
2019-05-03T23:56:35.218Z,1.37
2019-05-03T23:59:05.557Z,1.50
